Terminal Aerodrome Forecast
Issued by NWS

Home | Current Version | Previous Version | Text Only | Print | Product List | Glossary On
Versions: 1 2 3 4 5 6 7 8 9 10 11 12 13
000
FTUS45 KGJT 291732
TAFDRO
TAF
KDRO 291732Z 2918/3018 18004KT P6SM VCSH FEW060 BKN080 OVC100
     FM292000 19007KT P6SM VCTS FEW050CB BKN080
      TEMPO 2920/2924 -TSRA BKN060CB
     FM300000 07009KT P6SM VCSH OVC070
     FM300300 03006KT P6SM VCTS OVC060CB
     FM300600 04005KT P6SM VCSH BKN070=

USA.gov is the U.S. government's official web portal to all federal, state and local government web resources and services.